createdAt,value
2023-03-05T00:00:15.289Z,52.05
2023-03-05T00:03:37.381Z,69.80
2023-03-05T00:06:59.335Z,65.72
2023-03-05T00:10:21.428Z,58.90
2023-03-05T00:13:43.681Z,62.75
2023-03-05T00:17:05.733Z,69.50
2023-03-05T00:20:27.758Z,71.82
2023-03-05T00:23:53.119Z,53.47
2023-03-05T00:27:15.180Z,60.58
2023-03-05T00:30:37.240Z,62.35
2023-03-05T00:34:01.938Z,60.83
2023-03-05T00:37:23.897Z,61.35
2023-03-05T00:40:45.977Z,56.00
2023-03-05T00:44:08.357Z,54.72
2023-03-05T00:47:30.303Z,54.95
2023-03-05T00:50:52.804Z,60.78
2023-03-05T00:54:14.945Z,67.85
2023-03-05T00:57:36.949Z,60.83
2023-03-05T01:01:00.437Z,66.82
2023-03-05T01:04:22.763Z,61.95
2023-03-05T01:07:44.762Z,59.22
2023-03-05T01:11:08.396Z,64.63
2023-03-05T01:14:30.394Z,59.17
2023-03-05T01:17:52.869Z,64.38
2023-03-05T01:21:14.830Z,61.85
2023-03-05T01:24:36.848Z,57.25
2023-03-05T01:27:58.953Z,68.30
2023-03-05T01:31:21.505Z,57.72
2023-03-05T01:34:43.671Z,67.00
2023-03-05T01:38:05.631Z,68.25
2023-03-05T01:41:27.825Z,72.68
2023-03-05T01:45:04.412Z,65.00
2023-03-05T01:48:27.086Z,73.63
2023-03-05T01:52:11.279Z,68.05
2023-03-05T01:55:37.233Z,64.05
2023-03-05T01:59:03.674Z,74.53
2023-03-05T02:02:27.061Z,76.15
2023-03-05T02:05:49.413Z,66.57
2023-03-05T02:09:12.716Z,69.47
2023-03-05T02:12:35.136Z,79.00
2023-03-05T02:16:00.370Z,78.68
2023-03-05T02:19:22.326Z,68.38
2023-03-05T02:22:44.460Z,72.68
2023-03-05T02:26:11.045Z,75.20
2023-03-05T02:29:34.191Z,65.72
2023-03-05T02:32:56.158Z,66.20
2023-03-05T02:36:18.912Z,78.50
2023-03-05T02:39:41.039Z,78.07
2023-03-05T02:43:04.498Z,75.00
2023-03-05T02:46:26.884Z,76.47
2023-03-05T02:49:48.858Z,80.57
2023-03-05T02:53:10.976Z,72.78
2023-03-05T02:56:34.440Z,72.72
2023-03-05T02:59:57.032Z,70.72
2023-03-05T03:03:19.078Z,66.00
2023-03-05T03:06:41.059Z,61.55
2023-03-05T03:10:04.335Z,65.45
2023-03-05T03:13:26.332Z,64.65
2023-03-05T03:16:48.710Z,69.00
2023-03-05T03:20:17.154Z,60.72
2023-03-05T03:23:39.124Z,59.30
2023-03-05T03:27:01.830Z,64.13
2023-03-05T03:30:23.914Z,61.80
2023-03-05T03:33:45.977Z,70.10
2023-03-05T03:37:08.979Z,62.22
2023-03-05T03:40:31.796Z,69.28
2023-03-05T03:43:53.787Z,60.22
2023-03-05T03:47:16.078Z,61.63
2023-03-05T03:50:44.237Z,59.60
2023-03-05T03:54:06.218Z,55.67
2023-03-05T03:57:29.718Z,66.80
2023-03-05T04:00:51.682Z,61.92
2023-03-05T04:04:14.473Z,57.45
2023-03-05T04:07:36.474Z,65.20
2023-03-05T04:11:00.309Z,61.10
2023-03-05T04:14:22.297Z,55.08
2023-03-05T04:17:44.340Z,66.50
2023-03-05T04:21:06.806Z,56.70
2023-03-05T04:24:28.864Z,60.55
2023-03-05T04:27:50.996Z,68.72
2023-03-05T04:31:13.215Z,55.03
2023-03-05T04:34:37.064Z,57.20
2023-03-05T04:37:59.017Z,63.72
2023-03-05T04:41:20.998Z,61.75
2023-03-05T04:44:43.055Z,61.78
2023-03-05T04:48:05.151Z,70.50
2023-03-05T04:51:27.147Z,55.80
2023-03-05T04:54:49.144Z,61.75
2023-03-05T04:58:11.116Z,60.15
2023-03-05T05:01:35.188Z,57.78
2023-03-05T05:04:57.166Z,57.03
2023-03-05T05:08:19.167Z,59.67
2023-03-05T05:11:41.382Z,56.10
2023-03-05T05:15:05.107Z,56.05
2023-03-05T05:18:27.308Z,58.45
2023-03-05T05:21:49.390Z,55.38
2023-03-05T05:25:11.678Z,59.65
2023-03-05T05:28:35.144Z,53.47
2023-03-05T05:31:57.266Z,53.60
2023-03-05T05:35:20.007Z,57.17
2023-03-05T05:38:43.052Z,66.28
2023-03-05T05:42:05.552Z,69.30
2023-03-05T05:45:28.458Z,66.05
2023-03-05T05:48:51.115Z,63.28
2023-03-05T05:52:13.834Z,56.53
2023-03-05T05:55:35.862Z,68.30
2023-03-05T05:58:57.841Z,58.42
2023-03-05T06:02:19.811Z,67.15
2023-03-05T06:05:42.878Z,75.68
2023-03-05T06:09:32.986Z,72.65
2023-03-05T06:12:55.889Z,68.07
2023-03-05T06:16:36.197Z,77.43
2023-03-05T06:19:59.006Z,80.72
2023-03-05T06:23:20.970Z,64.97
2023-03-05T06:26:43.003Z,62.20
2023-03-05T06:30:06.652Z,65.28
2023-03-05T06:33:29.325Z,77.53
2023-03-05T06:36:51.274Z,75.18
2023-03-05T06:40:20.434Z,82.65
2023-03-05T06:43:45.091Z,92.15
2023-03-05T06:47:10.471Z,107.40
2023-03-05T06:50:35.720Z,116.43
2023-03-05T06:54:01.338Z,122.55
2023-03-05T06:57:23.854Z,131.85
2023-03-05T07:00:46.903Z,128.18
2023-03-05T07:04:09.387Z,113.75
2023-03-05T07:07:32.156Z,121.00
2023-03-05T07:10:54.134Z,102.53
2023-03-05T07:14:16.138Z,105.82
2023-03-05T07:17:38.090Z,97.70
2023-03-05T07:21:08.253Z,97.35
2023-03-05T07:24:30.800Z,96.45
2023-03-05T07:27:56.556Z,105.65
2023-03-05T07:31:27.187Z,99.30
2023-03-05T07:34:49.298Z,68.15
2023-03-05T07:38:11.339Z,60.42
2023-03-05T07:41:33.335Z,52.10
2023-03-05T07:44:55.320Z,55.55
2023-03-05T07:48:20.991Z,52.28
2023-03-05T07:51:43.075Z,49.00
2023-03-05T07:55:05.422Z,54.75
2023-03-05T07:58:27.635Z,54.90
2023-03-05T08:01:49.763Z,54.17
2023-03-05T08:05:12.042Z,53.78
2023-03-05T08:08:34.296Z,53.08
2023-03-05T08:11:56.327Z,67.10
2023-03-05T08:15:18.496Z,55.58
2023-03-05T08:18:40.988Z,49.15
2023-03-05T08:22:03.029Z,50.22
2023-03-05T08:25:25.025Z,52.42
2023-03-05T08:28:47.814Z,58.33
2023-03-05T08:32:09.904Z,52.90
2023-03-05T08:35:31.994Z,51.83
2023-03-05T08:38:53.967Z,57.00
2023-03-05T08:42:15.925Z,51.08
2023-03-05T08:45:40.112Z,53.40
2023-03-05T08:49:02.112Z,52.75
2023-03-05T08:52:24.686Z,56.63
2023-03-05T08:55:55.561Z,49.72
2023-03-05T08:59:17.856Z,53.70
2023-03-05T09:02:40.506Z,58.20
2023-03-05T09:06:06.016Z,50.28
2023-03-05T09:09:30.043Z,55.75
2023-03-05T09:12:52.670Z,56.53
2023-03-05T09:16:17.335Z,53.25
2023-03-05T09:19:39.405Z,55.35
2023-03-05T09:23:01.532Z,58.55
2023-03-05T09:26:23.490Z,56.30
2023-03-05T09:29:45.463Z,56.50
2023-03-05T09:33:07.471Z,59.63
2023-03-05T09:36:31.883Z,61.05
2023-03-05T09:39:53.864Z,61.72
2023-03-05T09:43:34.565Z,59.72
2023-03-05T09:47:24.850Z,61.50
2023-03-05T09:51:02.455Z,65.80
2023-03-05T09:54:43.237Z,56.40
2023-03-05T09:58:32.522Z,59.35
2023-03-05T10:01:59.773Z,57.95
2023-03-05T10:05:36.618Z,55.88
2023-03-05T10:09:11.872Z,58.13
2023-03-05T10:12:46.653Z,88.80
2023-03-05T10:16:36.446Z,61.53
2023-03-05T10:20:27.363Z,55.30
2023-03-05T10:23:58.874Z,60.47
2023-03-05T10:27:39.332Z,57.33
2023-03-05T10:31:26.154Z,63.90
2023-03-05T10:35:12.978Z,50.70
2023-03-05T10:38:57.005Z,54.50
2023-03-05T10:42:22.472Z,56.67
2023-03-05T10:45:56.691Z,63.08
2023-03-05T10:49:30.411Z,63.03
2023-03-05T10:53:08.894Z,54.65
2023-03-05T10:56:31.951Z,59.97
2023-03-05T11:00:01.358Z,58.60
2023-03-05T11:03:23.356Z,55.97
2023-03-05T11:06:48.813Z,60.13
2023-03-05T11:10:21.824Z,60.28
2023-03-05T11:14:02.975Z,55.53
2023-03-05T11:17:49.482Z,52.50
2023-03-05T11:21:27.931Z,60.97
2023-03-05T11:25:10.648Z,59.65
2023-03-05T11:28:41.471Z,70.93
2023-03-05T11:32:25.630Z,51.60
2023-03-05T11:35:51.720Z,50.58
2023-03-05T11:39:19.447Z,46.47
2023-03-05T11:42:42.259Z,54.95
2023-03-05T11:46:05.218Z,54.22
2023-03-05T11:49:29.750Z,55.58
2023-03-05T11:52:54.701Z,50.90
2023-03-05T11:56:30.114Z,53.53
2023-03-05T11:59:55.650Z,56.88
2023-03-05T12:03:36.383Z,59.85
2023-03-05T12:07:01.827Z,49.70
2023-03-05T12:10:25.657Z,49.17
2023-03-05T12:13:59.494Z,51.67
2023-03-05T12:17:37.523Z,48.28
2023-03-05T12:21:15.824Z,48.15
2023-03-05T12:24:39.568Z,49.75
2023-03-05T12:28:02.493Z,49.03
2023-03-05T12:31:39.450Z,50.20
2023-03-05T12:35:26.064Z,49.45
2023-03-05T12:38:52.908Z,48.75
2023-03-05T12:42:30.207Z,46.05
2023-03-05T12:45:52.962Z,58.22
2023-03-05T12:49:23.141Z,47.60
2023-03-05T12:52:46.435Z,49.55
2023-03-05T12:56:31.086Z,49.90
2023-03-05T12:59:58.556Z,51.58
2023-03-05T13:03:46.975Z,51.15
2023-03-05T13:07:16.046Z,51.63
2023-03-05T13:10:40.003Z,47.63
2023-03-05T13:14:02.931Z,49.65
2023-03-05T13:17:39.177Z,46.40
2023-03-05T13:21:12.941Z,49.72
2023-03-05T13:24:34.949Z,53.47
2023-03-05T13:28:12.297Z,47.85
2023-03-05T13:31:36.809Z,50.78
2023-03-05T13:35:01.276Z,54.10
2023-03-05T13:38:38.301Z,51.35
2023-03-05T13:42:16.752Z,53.75
2023-03-05T13:45:40.123Z,53.83
2023-03-05T13:49:24.222Z,50.72
2023-03-05T13:52:46.241Z,53.38
2023-03-05T13:56:18.035Z,57.78
2023-03-05T13:59:40.076Z,49.80
2023-03-05T14:03:23.008Z,50.38
2023-03-05T14:06:59.603Z,53.63
2023-03-05T14:10:33.865Z,51.58
2023-03-05T14:14:08.340Z,49.60
2023-03-05T14:17:42.411Z,52.67
2023-03-05T14:21:12.040Z,50.35
2023-03-05T14:24:34.192Z,47.40
2023-03-05T14:27:57.550Z,55.72
2023-03-05T14:31:21.474Z,51.83
2023-03-05T14:34:49.506Z,51.17
2023-03-05T14:38:23.497Z,50.15
2023-03-05T14:41:46.160Z,67.75
2023-03-05T14:45:20.680Z,57.78
2023-03-05T14:48:42.817Z,58.58
2023-03-05T14:55:58.513Z,57.92
2023-03-05T14:59:42.216Z,55.88
2023-03-05T15:03:29.895Z,55.13
2023-03-05T15:06:53.337Z,62.17
2023-03-05T15:10:20.699Z,63.55
2023-03-05T15:13:42.758Z,61.85
2023-03-05T15:17:04.747Z,59.33
2023-03-05T15:20:30.437Z,64.57
2023-03-05T15:23:52.970Z,60.13
2023-03-05T15:27:15.198Z,62.15
2023-03-05T15:30:47.404Z,62.70
2023-03-05T15:34:09.469Z,56.50
2023-03-05T15:37:31.406Z,59.50
2023-03-05T15:40:53.666Z,57.00
2023-03-05T15:44:15.627Z,56.47
2023-03-05T15:47:37.622Z,59.20
2023-03-05T15:50:59.674Z,63.17
2023-03-05T15:54:21.689Z,61.53
2023-03-05T15:57:46.947Z,65.93
2023-03-05T16:01:09.934Z,60.60
2023-03-05T16:04:32.664Z,69.97
2023-03-05T16:07:55.816Z,68.22
2023-03-05T16:11:18.550Z,62.50
2023-03-05T16:14:41.267Z,62.47
2023-03-05T16:18:06.705Z,65.32
2023-03-05T16:21:28.875Z,66.28
2023-03-05T16:24:50.908Z,66.88
2023-03-05T16:28:12.891Z,74.15
2023-03-05T16:31:38.270Z,64.75
2023-03-05T16:35:00.299Z,70.13
2023-03-05T16:38:22.283Z,67.47
2023-03-05T16:41:44.353Z,67.40
2023-03-05T16:45:07.287Z,66.97
2023-03-05T16:48:29.975Z,68.55
2023-03-05T16:51:52.042Z,73.65
2023-03-05T16:55:14.073Z,67.28
2023-03-05T16:58:38.551Z,68.70
2023-03-05T17:02:00.543Z,70.40
2023-03-05T17:05:22.772Z,67.13
2023-03-05T17:08:45.983Z,68.80
2023-03-05T17:12:08.681Z,74.80
2023-03-05T17:15:30.794Z,74.93
2023-03-05T17:18:56.514Z,75.18
2023-03-05T17:22:18.773Z,75.97
2023-03-05T17:25:40.969Z,74.78
2023-03-05T17:29:04.515Z,82.75
2023-03-05T17:32:26.672Z,74.85
2023-03-05T17:35:48.984Z,81.30
2023-03-05T17:39:11.332Z,71.32
2023-03-05T17:42:33.308Z,79.25
2023-03-05T17:45:59.721Z,83.70
2023-03-05T17:49:21.835Z,85.75
2023-03-05T17:52:43.855Z,80.70
2023-03-05T17:56:10.937Z,79.32
2023-03-05T17:59:32.956Z,82.00
2023-03-05T18:02:55.506Z,83.00
2023-03-05T18:06:17.489Z,85.35
2023-03-05T18:09:39.504Z,87.93
2023-03-05T18:13:01.784Z,85.95
2023-03-05T18:16:25.278Z,79.45
2023-03-05T18:19:47.349Z,82.55
2023-03-05T18:23:09.576Z,82.32
2023-03-05T18:26:31.858Z,84.40
2023-03-05T18:29:54.249Z,87.78
2023-03-05T18:33:20.223Z,81.35
2023-03-05T18:36:42.237Z,85.35
2023-03-05T18:40:09.598Z,81.60
2023-03-05T18:43:31.690Z,85.88
2023-03-05T18:46:53.881Z,82.15
2023-03-05T18:50:18.617Z,73.43
2023-03-05T18:53:40.626Z,79.78
2023-03-05T18:57:02.609Z,84.60
2023-03-05T19:00:30.530Z,79.28
2023-03-05T19:03:53.464Z,75.32
2023-03-05T19:07:15.509Z,83.57
2023-03-05T19:10:38.034Z,72.10
2023-03-05T19:14:00.570Z,78.20
2023-03-05T19:17:22.659Z,121.32
2023-03-05T19:20:44.663Z,99.93
2023-03-05T19:24:06.848Z,99.05
2023-03-05T19:27:29.307Z,88.45
2023-03-05T19:30:51.378Z,103.43
2023-03-05T19:34:13.772Z,94.43
2023-03-05T19:37:35.865Z,116.20
2023-03-05T19:40:57.814Z,95.45
2023-03-05T19:44:19.959Z,96.53
2023-03-05T19:47:41.913Z,87.15
2023-03-05T19:51:09.396Z,89.70
2023-03-05T19:54:31.927Z,90.15
2023-03-05T19:57:53.928Z,94.00
2023-03-05T20:01:18.202Z,91.38
2023-03-05T20:04:40.199Z,97.50
2023-03-05T20:08:02.424Z,94.82
2023-03-05T20:11:25.933Z,99.00
2023-03-05T20:14:49.385Z,97.00
2023-03-05T20:18:13.002Z,94.57
2023-03-05T20:21:40.807Z,87.88
2023-03-05T20:25:02.847Z,87.38
2023-03-05T20:28:27.826Z,82.38
2023-03-05T20:31:50.200Z,81.57
2023-03-05T20:35:17.531Z,87.63
2023-03-05T20:38:39.705Z,72.60
2023-03-05T20:42:01.707Z,73.82
2023-03-05T20:45:23.711Z,60.80
2023-03-05T20:48:48.063Z,69.75
2023-03-05T20:52:10.177Z,53.60
2023-03-05T20:55:32.721Z,54.30
2023-03-05T20:58:55.844Z,60.83
2023-03-05T21:02:18.408Z,62.13
2023-03-05T21:05:40.541Z,55.60
2023-03-05T21:09:02.860Z,57.90
2023-03-05T21:12:24.819Z,61.47
2023-03-05T21:15:46.780Z,58.67
2023-03-05T21:19:09.403Z,60.85
2023-03-05T21:22:32.449Z,59.72
2023-03-05T21:25:54.429Z,54.08
2023-03-05T21:29:16.448Z,66.88
2023-03-05T21:32:38.506Z,60.22
2023-03-05T21:36:00.577Z,66.13
2023-03-05T21:39:22.512Z,66.50
2023-03-05T21:42:45.528Z,59.70
2023-03-05T21:46:08.429Z,54.47
2023-03-05T21:49:30.507Z,52.38
2023-03-05T21:52:52.740Z,61.25
2023-03-05T21:56:25.636Z,54.45
2023-03-05T21:59:48.218Z,54.78
2023-03-05T22:03:12.936Z,59.65
2023-03-05T22:06:35.108Z,67.60
2023-03-05T22:09:57.670Z,64.13
2023-03-05T22:13:20.615Z,59.88
2023-03-05T22:16:42.688Z,63.05
2023-03-05T22:20:05.557Z,60.03
2023-03-05T22:23:31.385Z,63.92
2023-03-05T22:26:53.347Z,62.97
2023-03-05T22:30:15.705Z,64.53
2023-03-05T22:33:38.263Z,62.00
2023-03-05T22:37:00.220Z,57.47
2023-03-05T22:40:22.592Z,57.40
2023-03-05T22:43:44.551Z,61.33
2023-03-05T22:47:06.616Z,64.65
2023-03-05T22:50:28.747Z,57.40
2023-03-05T22:53:51.138Z,58.03
2023-03-05T22:57:13.429Z,61.60
2023-03-05T23:00:35.788Z,61.60
2023-03-05T23:04:48.412Z,61.85
2023-03-05T23:08:10.463Z,62.70
2023-03-05T23:11:32.530Z,62.17
2023-03-05T23:14:54.513Z,58.20
2023-03-05T23:18:16.528Z,64.40
2023-03-05T23:21:38.552Z,63.38
2023-03-05T23:25:00.675Z,59.70
2023-03-05T23:28:22.736Z,59.08
2023-03-05T23:31:44.736Z,64.28
2023-03-05T23:35:07.055Z,69.10
2023-03-05T23:38:30.599Z,65.57
2023-03-05T23:41:52.625Z,71.25
2023-03-05T23:45:16.497Z,71.95
2023-03-05T23:48:38.477Z,65.18
2023-03-05T23:52:00.453Z,70.50
2023-03-05T23:55:29.579Z,64.85
2023-03-05T23:58:51.677Z,67.18
